SHT9G EGPH-EGLL
Flight info
| Callsign | SHT9G |
|---|---|
| Flight time | 0h 59m |
| Altitude | 25000 |
| Route | DCT GOSAM DCT FENIK L612 ELBUS DCT LAKEY/N0444F310 DCT NUGRA NUGRA2H |
| Aircraft | A320/M-SDE3FGIJ1KRWXY/SB1 |
Departure
| Time | 2026-04-25 13:30 |
|---|---|
| Airport | Edinburgh Airport (EGPH) |
Arrival
| Time | 2026-04-25 14:29 |
|---|---|
| Airport | London Heathrow Airport (EGLL) |
| Time | Latitude | Longitude | Altitude | Speed | Heading |
|---|---|---|---|---|---|
| 2026-04-25 12:52 | 55.94960 | -3.36282 | 116 ft | 0 kts | 147° |
| 2026-04-25 13:17 | 55.94962 | -3.36284 | 116 ft | 3 kts | 147° |
| 2026-04-25 13:18 | 55.94984 | -3.36310 | 116 ft | 4 kts | 145° |
| 2026-04-25 13:18 | 55.95006 | -3.36338 | 116 ft | 4 kts | 144° |
| 2026-04-25 13:18 | 55.95026 | -3.36362 | 116 ft | 1 kts | 149° |
| 2026-04-25 13:18 | 55.95043 | -3.36376 | 116 ft | 1 kts | 157° |
| 2026-04-25 13:19 | 55.95044 | -3.36377 | 116 ft | 0 kts | 157° |
| 2026-04-25 13:21 | 55.95041 | -3.36377 | 116 ft | 1 kts | 175° |
| 2026-04-25 13:21 | 55.95029 | -3.36384 | 116 ft | 3 kts | 200° |
| 2026-04-25 13:21 | 55.95011 | -3.36413 | 116 ft | 5 kts | 229° |
| 2026-04-25 13:21 | 55.94989 | -3.36471 | 116 ft | 7 kts | 239° |
| 2026-04-25 13:22 | 55.94962 | -3.36553 | 116 ft | 9 kts | 239° |
| 2026-04-25 13:22 | 55.94927 | -3.36657 | 116 ft | 11 kts | 239° |
| 2026-04-25 13:22 | 55.94907 | -3.36793 | 116 ft | 13 kts | 290° |
| 2026-04-25 13:23 | 55.94850 | -3.37118 | 116 ft | 17 kts | 239° |
| 2026-04-25 13:23 | 55.94785 | -3.37311 | 116 ft | 19 kts | 239° |
| 2026-04-25 13:23 | 55.94714 | -3.37523 | 116 ft | 21 kts | 239° |
| 2026-04-25 13:23 | 55.94636 | -3.37753 | 116 ft | 23 kts | 239° |
| 2026-04-25 13:24 | 55.94553 | -3.37998 | 116 ft | 24 kts | 239° |
| 2026-04-25 13:24 | 55.94463 | -3.38263 | 116 ft | 26 kts | 238° |
| 2026-04-25 13:24 | 55.94405 | -3.38431 | 116 ft | 13 kts | 239° |
| 2026-04-25 13:24 | 55.94355 | -3.38581 | 116 ft | 15 kts | 239° |
| 2026-04-25 13:25 | 55.94301 | -3.38745 | 116 ft | 14 kts | 240° |
| 2026-04-25 13:25 | 55.94282 | -3.38847 | 116 ft | 8 kts | 289° |
| 2026-04-25 13:25 | 55.94319 | -3.38900 | 116 ft | 0 kts | 328° |
| 2026-04-25 13:27 | 55.94320 | -3.38901 | 116 ft | 1 kts | 328° |
| 2026-04-25 13:27 | 55.94333 | -3.38915 | 116 ft | 3 kts | 329° |
| 2026-04-25 13:28 | 55.94362 | -3.38947 | 115 ft | 7 kts | 329° |
| 2026-04-25 13:28 | 55.94378 | -3.38964 | 114 ft | 9 kts | 329° |
| 2026-04-25 13:28 | 55.94455 | -3.38851 | 114 ft | 11 kts | 59° |
| 2026-04-25 13:28 | 55.94508 | -3.38694 | 113 ft | 27 kts | 59° |
| 2026-04-25 13:29 | 55.94737 | -3.38029 | 115 ft | 95 kts | 58° |
| 2026-04-25 13:29 | 55.95168 | -3.36755 | 114 ft | 145 kts | 59° |
| 2026-04-25 13:29 | 55.95744 | -3.35042 | 424 ft | 160 kts | 59° |
| 2026-04-25 13:30 | 55.97339 | -3.32168 | 1331 ft | 178 kts | 41° |
| 2026-04-25 13:30 | 55.98322 | -3.30605 | 1546 ft | 200 kts | 42° |
| 2026-04-25 13:30 | 55.99402 | -3.28926 | 1889 ft | 212 kts | 35° |
| 2026-04-25 13:31 | 56.02441 | -3.29178 | 2531 ft | 256 kts | 317° |
| 2026-04-25 13:31 | 56.03368 | -3.31909 | 3250 ft | 264 kts | 281° |
| 2026-04-25 13:31 | 56.03367 | -3.35146 | 4098 ft | 267 kts | 260° |
| 2026-04-25 13:31 | 56.02943 | -3.38445 | 4991 ft | 270 kts | 253° |
| 2026-04-25 13:32 | 56.02383 | -3.41677 | 5830 ft | 274 kts | 252° |
| 2026-04-25 13:32 | 56.01994 | -3.43838 | 6368 ft | 277 kts | 252° |
| 2026-04-25 13:32 | 56.01231 | -3.48236 | 7404 ft | 282 kts | 253° |
| 2026-04-25 13:32 | 56.00683 | -3.51630 | 8153 ft | 286 kts | 254° |
| 2026-04-25 13:33 | 56.00158 | -3.55071 | 8870 ft | 290 kts | 255° |
| 2026-04-25 13:33 | 55.99646 | -3.58575 | 9561 ft | 293 kts | 255° |
| 2026-04-25 13:33 | 55.99138 | -3.62132 | 10217 ft | 298 kts | 255° |
| 2026-04-25 13:33 | 55.98965 | -3.63355 | 10299 ft | 305 kts | 255° |
| 2026-04-25 13:34 | 55.98048 | -3.69802 | 10522 ft | 339 kts | 255° |
| 2026-04-25 13:34 | 55.97649 | -3.72607 | 10706 ft | 348 kts | 255° |
| 2026-04-25 13:34 | 55.97043 | -3.76833 | 11178 ft | 353 kts | 255° |
| 2026-04-25 13:34 | 55.96424 | -3.81102 | 11692 ft | 357 kts | 255° |
| 2026-04-25 13:35 | 55.95795 | -3.85414 | 12195 ft | 360 kts | 255° |
| 2026-04-25 13:35 | 55.95161 | -3.89754 | 12676 ft | 363 kts | 255° |
| 2026-04-25 13:35 | 55.94487 | -3.94125 | 13128 ft | 366 kts | 250° |
| 2026-04-25 13:35 | 55.93267 | -3.98099 | 13549 ft | 369 kts | 231° |
| 2026-04-25 13:36 | 55.91376 | -4.01190 | 13965 ft | 372 kts | 212° |
| 2026-04-25 13:36 | 55.89006 | -4.03007 | 14367 ft | 375 kts | 193° |
| 2026-04-25 13:36 | 55.86414 | -4.03532 | 14761 ft | 377 kts | 184° |
| 2026-04-25 13:36 | 55.83782 | -4.03832 | 15159 ft | 380 kts | 184° |
| 2026-04-25 13:37 | 55.81132 | -4.04122 | 15543 ft | 382 kts | 184° |
| 2026-04-25 13:37 | 55.78505 | -4.04410 | 15907 ft | 385 kts | 184° |
| 2026-04-25 13:37 | 55.75821 | -4.04706 | 16262 ft | 387 kts | 184° |
| 2026-04-25 13:37 | 55.73125 | -4.05003 | 16607 ft | 390 kts | 184° |
| 2026-04-25 13:38 | 55.70407 | -4.05308 | 16939 ft | 392 kts | 184° |
| 2026-04-25 13:38 | 55.67671 | -4.05621 | 17268 ft | 394 kts | 184° |
| 2026-04-25 13:38 | 55.64931 | -4.05933 | 17587 ft | 396 kts | 184° |
| 2026-04-25 13:38 | 55.62167 | -4.06250 | 17901 ft | 399 kts | 184° |
| 2026-04-25 13:39 | 55.59393 | -4.06566 | 18208 ft | 401 kts | 184° |
| 2026-04-25 13:39 | 55.56609 | -4.06880 | 18504 ft | 403 kts | 184° |
| 2026-04-25 13:39 | 55.53794 | -4.07194 | 18793 ft | 405 kts | 184° |
| 2026-04-25 13:39 | 55.50974 | -4.07130 | 19058 ft | 407 kts | 173° |
| 2026-04-25 13:40 | 55.48195 | -4.06092 | 19321 ft | 410 kts | 162° |
| 2026-04-25 13:40 | 55.45569 | -4.04121 | 19573 ft | 412 kts | 153° |
| 2026-04-25 13:40 | 55.43011 | -4.01800 | 19820 ft | 414 kts | 153° |
| 2026-04-25 13:40 | 55.40448 | -3.99483 | 20067 ft | 416 kts | 153° |
| 2026-04-25 13:41 | 55.37871 | -3.97162 | 20305 ft | 417 kts | 153° |
| 2026-04-25 13:41 | 55.35271 | -3.94829 | 20535 ft | 419 kts | 153° |
| 2026-04-25 13:41 | 55.32671 | -3.92503 | 20755 ft | 421 kts | 153° |
| 2026-04-25 13:41 | 55.30053 | -3.90169 | 20969 ft | 422 kts | 153° |
| 2026-04-25 13:42 | 55.27432 | -3.87834 | 21178 ft | 424 kts | 153° |
| 2026-04-25 13:42 | 55.24792 | -3.85480 | 21378 ft | 425 kts | 153° |
| 2026-04-25 13:42 | 55.22154 | -3.83134 | 21570 ft | 427 kts | 153° |
| 2026-04-25 13:42 | 55.19500 | -3.80778 | 21751 ft | 428 kts | 153° |
| 2026-04-25 13:43 | 55.16841 | -3.78418 | 21919 ft | 429 kts | 153° |
| 2026-04-25 13:43 | 55.14171 | -3.76054 | 22079 ft | 431 kts | 153° |
| 2026-04-25 13:43 | 55.11493 | -3.73686 | 22235 ft | 432 kts | 153° |
| 2026-04-25 13:43 | 55.08808 | -3.71310 | 22384 ft | 433 kts | 153° |
| 2026-04-25 13:44 | 55.06119 | -3.68934 | 22528 ft | 434 kts | 153° |
| 2026-04-25 13:44 | 55.03413 | -3.66553 | 22671 ft | 435 kts | 153° |
| 2026-04-25 13:44 | 55.00705 | -3.64176 | 22813 ft | 436 kts | 153° |
| 2026-04-25 13:44 | 54.97992 | -3.61799 | 22947 ft | 437 kts | 153° |
| 2026-04-25 13:45 | 54.95265 | -3.59411 | 23079 ft | 439 kts | 153° |
| 2026-04-25 13:45 | 54.92571 | -3.57054 | 23213 ft | 439 kts | 153° |
| 2026-04-25 13:45 | 54.89834 | -3.54661 | 23338 ft | 440 kts | 153° |
| 2026-04-25 13:45 | 54.87093 | -3.52268 | 23469 ft | 441 kts | 154° |
| 2026-04-25 13:46 | 54.84346 | -3.49872 | 23595 ft | 442 kts | 154° |
| 2026-04-25 13:46 | 54.81597 | -3.47480 | 23722 ft | 443 kts | 154° |
| 2026-04-25 13:46 | 54.78837 | -3.45085 | 23847 ft | 443 kts | 154° |
| 2026-04-25 13:46 | 54.76081 | -3.42700 | 23972 ft | 444 kts | 154° |
| 2026-04-25 13:47 | 54.73314 | -3.40308 | 24098 ft | 445 kts | 154° |
| 2026-04-25 13:47 | 54.70546 | -3.37916 | 24224 ft | 445 kts | 154° |
| 2026-04-25 13:47 | 54.67785 | -3.35532 | 24350 ft | 445 kts | 154° |
| 2026-04-25 13:47 | 54.65003 | -3.33132 | 24475 ft | 446 kts | 154° |
| 2026-04-25 13:48 | 54.62220 | -3.30733 | 24600 ft | 446 kts | 154° |
| 2026-04-25 13:48 | 54.59446 | -3.28344 | 24725 ft | 446 kts | 154° |
| 2026-04-25 13:48 | 54.56669 | -3.25959 | 24857 ft | 446 kts | 154° |
| 2026-04-25 13:48 | 54.53900 | -3.23588 | 24984 ft | 446 kts | 154° |
| 2026-04-25 13:49 | 54.51110 | -3.21203 | 25011 ft | 448 kts | 154° |
| 2026-04-25 13:49 | 54.48310 | -3.18815 | 25009 ft | 450 kts | 154° |
| 2026-04-25 13:49 | 54.45497 | -3.16421 | 25010 ft | 453 kts | 154° |
| 2026-04-25 13:49 | 54.42666 | -3.14015 | 25009 ft | 454 kts | 154° |
| 2026-04-25 13:50 | 54.39839 | -3.11616 | 25009 ft | 455 kts | 154° |
| 2026-04-25 13:50 | 54.36996 | -3.09206 | 25009 ft | 455 kts | 154° |
| 2026-04-25 13:50 | 54.34160 | -3.06804 | 25009 ft | 455 kts | 154° |
| 2026-04-25 13:50 | 54.31321 | -3.04405 | 25009 ft | 455 kts | 154° |
| 2026-04-25 13:51 | 54.28483 | -3.02012 | 25008 ft | 455 kts | 154° |
| 2026-04-25 13:51 | 54.25643 | -2.99620 | 25009 ft | 455 kts | 154° |
| 2026-04-25 13:51 | 54.22746 | -2.97470 | 25007 ft | 454 kts | 161° |
| 2026-04-25 13:51 | 54.19749 | -2.95735 | 25009 ft | 454 kts | 161° |
| 2026-04-25 13:52 | 54.16756 | -2.94013 | 25009 ft | 454 kts | 161° |
| 2026-04-25 13:52 | 54.13759 | -2.92290 | 25009 ft | 454 kts | 161° |
| 2026-04-25 13:52 | 54.10799 | -2.90593 | 25009 ft | 454 kts | 162° |
| 2026-04-25 13:52 | 54.07802 | -2.88878 | 25009 ft | 454 kts | 162° |
| 2026-04-25 13:53 | 54.04808 | -2.87168 | 25009 ft | 454 kts | 162° |
| 2026-04-25 13:53 | 54.01809 | -2.85455 | 25009 ft | 454 kts | 161° |
| 2026-04-25 13:53 | 53.98815 | -2.83743 | 25009 ft | 454 kts | 161° |
| 2026-04-25 13:53 | 53.95820 | -2.82034 | 25009 ft | 454 kts | 162° |
| 2026-04-25 13:54 | 53.92820 | -2.80329 | 25009 ft | 454 kts | 162° |
| 2026-04-25 13:54 | 53.89823 | -2.78628 | 25009 ft | 454 kts | 162° |
| 2026-04-25 13:54 | 53.86828 | -2.76931 | 25009 ft | 454 kts | 162° |
| 2026-04-25 13:54 | 53.83827 | -2.75231 | 25009 ft | 454 kts | 162° |
| 2026-04-25 13:55 | 53.80825 | -2.73535 | 25009 ft | 454 kts | 162° |
| 2026-04-25 13:55 | 53.77832 | -2.71843 | 25009 ft | 454 kts | 162° |
| 2026-04-25 13:55 | 53.74833 | -2.70150 | 25009 ft | 454 kts | 162° |
| 2026-04-25 13:55 | 53.71838 | -2.68461 | 25009 ft | 454 kts | 162° |
| 2026-04-25 13:56 | 53.68871 | -2.66789 | 25219 ft | 440 kts | 163° |
| 2026-04-25 13:56 | 53.66029 | -2.65186 | 25218 ft | 422 kts | 163° |
| 2026-04-25 13:56 | 53.63265 | -2.63637 | 25218 ft | 416 kts | 163° |
| 2026-04-25 13:56 | 53.60523 | -2.62110 | 25220 ft | 414 kts | 163° |
| 2026-04-25 13:57 | 53.57785 | -2.60588 | 25227 ft | 414 kts | 163° |
| 2026-04-25 13:57 | 53.55981 | -2.59583 | 25226 ft | 414 kts | 163° |
| 2026-04-25 13:57 | 53.52325 | -2.57546 | 25223 ft | 414 kts | 163° |
| 2026-04-25 13:57 | 53.49583 | -2.56021 | 25219 ft | 415 kts | 163° |
| 2026-04-25 13:58 | 53.46845 | -2.54500 | 25219 ft | 415 kts | 163° |
| 2026-04-25 13:58 | 53.44102 | -2.52977 | 25228 ft | 415 kts | 163° |
| 2026-04-25 13:58 | 53.41395 | -2.51474 | 25218 ft | 415 kts | 163° |
| 2026-04-25 13:58 | 53.38660 | -2.49961 | 25213 ft | 415 kts | 163° |
| 2026-04-25 13:59 | 53.35877 | -2.48426 | 25213 ft | 415 kts | 163° |
| 2026-04-25 13:59 | 53.33173 | -2.46935 | 25225 ft | 415 kts | 163° |
| 2026-04-25 13:59 | 53.30433 | -2.45423 | 25219 ft | 415 kts | 163° |
| 2026-04-25 13:59 | 53.27695 | -2.43912 | 25214 ft | 414 kts | 163° |
| 2026-04-25 14:00 | 53.24953 | -2.42401 | 25220 ft | 414 kts | 163° |
| 2026-04-25 14:00 | 53.22216 | -2.40896 | 25220 ft | 414 kts | 163° |
| 2026-04-25 14:00 | 53.19475 | -2.39395 | 25212 ft | 414 kts | 163° |
| 2026-04-25 14:00 | 53.16732 | -2.37895 | 25215 ft | 414 kts | 163° |
| 2026-04-25 14:01 | 53.13988 | -2.36397 | 25215 ft | 415 kts | 163° |
| 2026-04-25 14:01 | 53.11253 | -2.34903 | 25218 ft | 415 kts | 163° |
| 2026-04-25 14:01 | 53.08512 | -2.33408 | 25227 ft | 415 kts | 163° |
| 2026-04-25 14:01 | 53.05766 | -2.31913 | 25219 ft | 415 kts | 163° |
| 2026-04-25 14:02 | 53.03065 | -2.30230 | 25221 ft | 416 kts | 156° |
| 2026-04-25 14:02 | 53.00533 | -2.27857 | 25221 ft | 417 kts | 149° |
| 2026-04-25 14:02 | 52.98081 | -2.25271 | 25206 ft | 418 kts | 149° |
| 2026-04-25 14:02 | 52.97291 | -2.24438 | 25208 ft | 418 kts | 149° |
| 2026-04-25 14:03 | 52.93178 | -2.20111 | 25213 ft | 418 kts | 149° |
| 2026-04-25 14:03 | 52.90722 | -2.17534 | 25216 ft | 418 kts | 149° |
| 2026-04-25 14:03 | 52.88289 | -2.14989 | 25217 ft | 418 kts | 149° |
| 2026-04-25 14:03 | 52.85825 | -2.12416 | 25217 ft | 418 kts | 150° |
| 2026-04-25 14:04 | 52.83362 | -2.09851 | 25225 ft | 418 kts | 150° |
| 2026-04-25 14:04 | 52.80905 | -2.07297 | 25228 ft | 418 kts | 150° |
| 2026-04-25 14:04 | 52.78436 | -2.04733 | 25229 ft | 418 kts | 150° |
| 2026-04-25 14:04 | 52.75974 | -2.02173 | 25224 ft | 418 kts | 150° |
| 2026-04-25 14:05 | 52.73512 | -1.99616 | 25215 ft | 418 kts | 150° |
| 2026-04-25 14:05 | 52.71049 | -1.97061 | 25210 ft | 418 kts | 150° |
| 2026-04-25 14:05 | 52.68580 | -1.94505 | 25211 ft | 419 kts | 150° |
| 2026-04-25 14:05 | 52.66107 | -1.91953 | 25209 ft | 419 kts | 150° |
| 2026-04-25 14:06 | 52.63641 | -1.89417 | 25219 ft | 419 kts | 150° |
| 2026-04-25 14:06 | 52.61172 | -1.86882 | 25221 ft | 419 kts | 150° |
| 2026-04-25 14:06 | 52.58698 | -1.84342 | 25219 ft | 419 kts | 150° |
| 2026-04-25 14:06 | 52.56226 | -1.81800 | 25216 ft | 419 kts | 150° |
| 2026-04-25 14:07 | 52.53755 | -1.79260 | 25203 ft | 419 kts | 150° |
| 2026-04-25 14:07 | 52.51284 | -1.76726 | 25215 ft | 419 kts | 150° |
| 2026-04-25 14:07 | 52.48812 | -1.74194 | 25210 ft | 419 kts | 150° |
| 2026-04-25 14:07 | 52.46341 | -1.71668 | 25212 ft | 419 kts | 150° |
| 2026-04-25 14:08 | 52.43858 | -1.69132 | 25213 ft | 419 kts | 150° |
| 2026-04-25 14:08 | 52.41381 | -1.66612 | 25216 ft | 419 kts | 150° |
| 2026-04-25 14:08 | 52.38905 | -1.64093 | 25217 ft | 419 kts | 150° |
| 2026-04-25 14:08 | 52.36431 | -1.61578 | 25220 ft | 419 kts | 150° |
| 2026-04-25 14:09 | 52.33988 | -1.59095 | 25223 ft | 419 kts | 150° |
| 2026-04-25 14:09 | 52.31513 | -1.56584 | 25223 ft | 419 kts | 150° |
| 2026-04-25 14:09 | 52.29040 | -1.54083 | 25222 ft | 418 kts | 150° |
| 2026-04-25 14:09 | 52.28203 | -1.53238 | 25222 ft | 418 kts | 150° |
| 2026-04-25 14:10 | 52.25732 | -1.50744 | 24931 ft | 417 kts | 150° |
| 2026-04-25 14:10 | 52.21673 | -1.46561 | 22976 ft | 414 kts | 145° |
| 2026-04-25 14:10 | 52.19465 | -1.43571 | 21829 ft | 411 kts | 141° |
| 2026-04-25 14:10 | 52.17307 | -1.40547 | 20797 ft | 406 kts | 141° |
| 2026-04-25 14:11 | 52.15179 | -1.37572 | 19827 ft | 401 kts | 141° |
| 2026-04-25 14:11 | 52.13073 | -1.34639 | 18876 ft | 396 kts | 141° |
| 2026-04-25 14:11 | 52.11001 | -1.31757 | 18284 ft | 382 kts | 140° |
| 2026-04-25 14:11 | 52.09044 | -1.29029 | 17810 ft | 364 kts | 140° |
| 2026-04-25 14:12 | 52.07150 | -1.26395 | 17383 ft | 353 kts | 141° |
| 2026-04-25 14:12 | 52.05282 | -1.23802 | 17034 ft | 352 kts | 141° |
| 2026-04-25 14:12 | 52.03429 | -1.21234 | 16672 ft | 350 kts | 141° |
| 2026-04-25 14:12 | 52.01578 | -1.18676 | 16322 ft | 348 kts | 141° |
| 2026-04-25 14:13 | 51.99746 | -1.16155 | 15963 ft | 341 kts | 141° |
| 2026-04-25 14:13 | 51.97977 | -1.13715 | 15629 ft | 325 kts | 141° |
| 2026-04-25 14:13 | 51.96275 | -1.11367 | 15308 ft | 319 kts | 141° |
| 2026-04-25 14:13 | 51.94591 | -1.09043 | 14759 ft | 319 kts | 141° |
| 2026-04-25 14:14 | 51.92909 | -1.06725 | 13941 ft | 323 kts | 141° |
| 2026-04-25 14:14 | 51.91191 | -1.04362 | 13170 ft | 322 kts | 140° |
| 2026-04-25 14:14 | 51.89524 | -1.02069 | 12959 ft | 307 kts | 140° |
| 2026-04-25 14:14 | 51.87896 | -0.99829 | 12829 ft | 308 kts | 140° |
| 2026-04-25 14:15 | 51.86288 | -0.97608 | 12692 ft | 300 kts | 139° |
| 2026-04-25 14:15 | 51.85784 | -0.96808 | 12645 ft | 297 kts | 133° |
| 2026-04-25 14:15 | 51.84017 | -0.92121 | 12069 ft | 296 kts | 116° |
| 2026-04-25 14:15 | 51.83125 | -0.89179 | 11688 ft | 288 kts | 116° |
| 2026-04-25 14:16 | 51.82253 | -0.86312 | 11324 ft | 280 kts | 116° |
| 2026-04-25 14:16 | 51.81405 | -0.83530 | 10961 ft | 273 kts | 116° |
| 2026-04-25 14:16 | 51.80575 | -0.80815 | 10606 ft | 266 kts | 116° |
| 2026-04-25 14:16 | 51.79757 | -0.78142 | 10262 ft | 266 kts | 116° |
| 2026-04-25 14:17 | 51.78930 | -0.75444 | 9895 ft | 269 kts | 116° |
| 2026-04-25 14:17 | 51.78095 | -0.72725 | 9535 ft | 271 kts | 116° |
| 2026-04-25 14:17 | 51.77252 | -0.69980 | 9169 ft | 273 kts | 116° |
| 2026-04-25 14:17 | 51.76693 | -0.68164 | 8939 ft | 274 kts | 116° |
| 2026-04-25 14:18 | 51.75552 | -0.64459 | 8459 ft | 276 kts | 117° |
| 2026-04-25 14:18 | 51.74981 | -0.62617 | 8218 ft | 278 kts | 117° |
| 2026-04-25 14:18 | 51.74114 | -0.59818 | 7838 ft | 279 kts | 117° |
| 2026-04-25 14:18 | 51.73245 | -0.57010 | 7496 ft | 281 kts | 116° |
| 2026-04-25 14:19 | 51.72369 | -0.54192 | 7239 ft | 278 kts | 118° |
| 2026-04-25 14:19 | 51.71448 | -0.51572 | 7232 ft | 259 kts | 121° |
| 2026-04-25 14:19 | 51.70549 | -0.49127 | 7240 ft | 251 kts | 121° |
| 2026-04-25 14:19 | 51.69658 | -0.46714 | 7248 ft | 250 kts | 121° |
| 2026-04-25 14:20 | 51.68766 | -0.44306 | 7243 ft | 250 kts | 121° |
| 2026-04-25 14:20 | 51.68165 | -0.42682 | 7243 ft | 249 kts | 121° |
| 2026-04-25 14:20 | 51.66988 | -0.39509 | 7248 ft | 250 kts | 121° |
| 2026-04-25 14:20 | 51.66097 | -0.37108 | 7247 ft | 250 kts | 121° |
| 2026-04-25 14:21 | 51.65204 | -0.34702 | 7253 ft | 250 kts | 121° |
| 2026-04-25 14:21 | 51.64315 | -0.32307 | 7249 ft | 250 kts | 121° |
| 2026-04-25 14:21 | 51.63423 | -0.29906 | 7213 ft | 249 kts | 121° |
| 2026-04-25 14:21 | 51.62536 | -0.27519 | 6963 ft | 248 kts | 121° |
| 2026-04-25 14:22 | 51.61656 | -0.25150 | 6693 ft | 247 kts | 121° |
| 2026-04-25 14:22 | 51.60776 | -0.22779 | 6407 ft | 245 kts | 121° |
| 2026-04-25 14:22 | 51.59902 | -0.20426 | 6121 ft | 244 kts | 121° |
| 2026-04-25 14:22 | 51.59036 | -0.18094 | 5829 ft | 243 kts | 121° |
| 2026-04-25 14:23 | 51.58099 | -0.15854 | 5546 ft | 240 kts | 136° |
| 2026-04-25 14:23 | 51.56691 | -0.14566 | 5381 ft | 229 kts | 170° |
| 2026-04-25 14:23 | 51.55172 | -0.14338 | 5220 ft | 212 kts | 179° |
| 2026-04-25 14:23 | 51.53758 | -0.14322 | 5072 ft | 195 kts | 181° |
| 2026-04-25 14:24 | 51.52421 | -0.14333 | 4677 ft | 191 kts | 181° |
| 2026-04-25 14:24 | 51.51112 | -0.14353 | 4253 ft | 190 kts | 181° |
| 2026-04-25 14:24 | 51.49798 | -0.14384 | 4000 ft | 187 kts | 181° |
| 2026-04-25 14:24 | 51.48466 | -0.14425 | 4000 ft | 190 kts | 182° |
| 2026-04-25 14:25 | 51.47242 | -0.15042 | 3967 ft | 188 kts | 218° |
| 2026-04-25 14:25 | 51.46559 | -0.16749 | 3667 ft | 186 kts | 261° |
| 2026-04-25 14:25 | 51.46537 | -0.18819 | 3320 ft | 188 kts | 270° |
| 2026-04-25 14:25 | 51.46536 | -0.20242 | 3092 ft | 188 kts | 270° |
| 2026-04-25 14:26 | 51.46531 | -0.23027 | 2660 ft | 188 kts | 270° |
| 2026-04-25 14:26 | 51.46528 | -0.25127 | 2365 ft | 188 kts | 270° |
| 2026-04-25 14:26 | 51.46525 | -0.27224 | 2093 ft | 188 kts | 270° |
| 2026-04-25 14:26 | 51.46522 | -0.29301 | 1841 ft | 184 kts | 270° |
| 2026-04-25 14:27 | 51.46519 | -0.31306 | 1589 ft | 175 kts | 270° |
| 2026-04-25 14:27 | 51.46516 | -0.33225 | 1349 ft | 169 kts | 270° |
| 2026-04-25 14:27 | 51.46512 | -0.35100 | 1122 ft | 166 kts | 270° |
| 2026-04-25 14:27 | 51.46509 | -0.36905 | 898 ft | 157 kts | 270° |
| 2026-04-25 14:28 | 51.46505 | -0.38613 | 702 ft | 150 kts | 270° |
| 2026-04-25 14:28 | 51.46501 | -0.40271 | 507 ft | 148 kts | 270° |
| 2026-04-25 14:28 | 51.46503 | -0.41909 | 307 ft | 147 kts | 271° |
| 2026-04-25 14:28 | 51.46498 | -0.43550 | 138 ft | 147 kts | 271° |
| 2026-04-25 14:29 | 51.46497 | -0.45120 | 90 ft | 128 kts | 267° |
| 2026-04-25 14:29 | 51.46490 | -0.46257 | 88 ft | 58 kts | 269° |
| 2026-04-25 14:29 | 51.46512 | -0.46629 | 90 ft | 29 kts | 292° |
| 2026-04-25 14:29 | 51.46563 | -0.46805 | 91 ft | 10 kts | 296° |
| 2026-04-25 14:30 | 51.46616 | -0.46858 | 87 ft | 11 kts | 356° |
| 2026-04-25 14:30 | 51.46658 | -0.47030 | 90 ft | 8 kts | 269° |
| 2026-04-25 14:30 | 51.46658 | -0.47035 | 87 ft | 0 kts | 269° |
| 2026-04-25 14:31 | 51.46658 | -0.47045 | 88 ft | 2 kts | 269° |
| 2026-04-25 14:31 | 51.46658 | -0.47082 | 90 ft | 5 kts | 269° |
| 2026-04-25 14:31 | 51.46657 | -0.47148 | 87 ft | 7 kts | 269° |
| 2026-04-25 14:31 | 51.46657 | -0.47247 | 89 ft | 12 kts | 270° |
| 2026-04-25 14:32 | 51.46657 | -0.47414 | 88 ft | 17 kts | 270° |
| 2026-04-25 14:32 | 51.46656 | -0.47618 | 87 ft | 20 kts | 270° |
| 2026-04-25 14:32 | 51.46656 | -0.47848 | 86 ft | 19 kts | 269° |
| 2026-04-25 14:32 | 51.46653 | -0.47980 | 86 ft | 6 kts | 268° |
| 2026-04-25 14:33 | 51.46651 | -0.48043 | 86 ft | 4 kts | 268° |
| 2026-04-25 14:33 | 51.46650 | -0.48079 | 86 ft | 4 kts | 269° |
| 2026-04-25 14:33 | 51.46651 | -0.48138 | 86 ft | 8 kts | 272° |
| 2026-04-25 14:33 | 51.46653 | -0.48298 | 86 ft | 18 kts | 270° |
| 2026-04-25 14:34 | 51.46677 | -0.48455 | 88 ft | 14 kts | 332° |
| 2026-04-25 14:34 | 51.46784 | -0.48467 | 86 ft | 17 kts | 359° |
| 2026-04-25 14:34 | 51.46910 | -0.48468 | 87 ft | 19 kts | 360° |
| 2026-04-25 14:34 | 51.47054 | -0.48470 | 88 ft | 22 kts | 359° |
| 2026-04-25 14:35 | 51.47216 | -0.48472 | 88 ft | 24 kts | 359° |
| 2026-04-25 14:35 | 51.47391 | -0.48474 | 86 ft | 24 kts | 0° |
| 2026-04-25 14:35 | 51.47480 | -0.48516 | 88 ft | 13 kts | 294° |
| 2026-04-25 14:35 | 51.47487 | -0.48679 | 88 ft | 16 kts | 270° |
| 2026-04-25 14:36 | 51.47489 | -0.48853 | 86 ft | 14 kts | 276° |
| 2026-04-25 14:36 | 51.47482 | -0.48949 | 90 ft | 9 kts | 216° |
| 2026-04-25 14:36 | 51.47440 | -0.48954 | 87 ft | 4 kts | 179° |
| 2026-04-25 14:36 | 51.47421 | -0.48953 | 87 ft | 1 kts | 179° |
| 2026-04-25 14:37 | 51.47417 | -0.48953 | 88 ft | 0 kts | 179° |